Map

Track Data

SID SEASON NUMBER BASIN SUBBASIN NAME ISO_TIME NATURE LAT LON WMO_WIND WMO_PRES WMO_AGENCY TRACK_TYPE DIST2LAND LANDFALL IFLAG USA_AGENCY USA_ATCF_ID USA_LAT USA_LON USA_RECORD USA_STATUS USA_WIND USA_PRES USA_SSHS USA_R34_NE USA_R34_SE USA_R34_SW USA_R34_NW USA_R50_NE USA_R50_SE USA_R50_SW USA_R50_NW USA_R64_NE USA_R64_SE USA_R64_SW USA_R64_NW USA_POCI USA_ROCI USA_RMW USA_EYE TOKYO_LAT TOKYO_LON TOKYO_GRADE TOKYO_WIND TOKYO_PRES TOKYO_R50_DIR TOKYO_R50_LONG TOKYO_R50_SHORT TOKYO_R30_DIR TOKYO_R30_LONG TOKYO_R30_SHORT TOKYO_LAND CMA_LAT CMA_LON CMA_CAT CMA_WIND CMA_PRES HKO_LAT HKO_LON HKO_CAT HKO_WIND HKO_PRES NEWDELHI_LAT NEWDELHI_LON NEWDELHI_GRADE NEWDELHI_WIND NEWDELHI_PRES NEWDELHI_CI NEWDELHI_DP NEWDELHI_POCI REUNION_LAT REUNION_LON REUNION_TYPE REUNION_WIND REUNION_PRES REUNION_TNUM REUNION_CI REUNION_RMW REUNION_R34_NE REUNION_R34_SE REUNION_R34_SW REUNION_R34_NW REUNION_R50_NE REUNION_R50_SE REUNION_R50_SW REUNION_R50_NW REUNION_R64_NE REUNION_R64_SE REUNION_R64_SW REUNION_R64_NW BOM_LAT BOM_LON BOM_TYPE BOM_WIND BOM_PRES BOM_TNUM BOM_CI BOM_RMW BOM_R34_NE BOM_R34_SE BOM_R34_SW BOM_R34_NW BOM_R50_NE BOM_R50_SE BOM_R50_SW BOM_R50_NW BOM_R64_NE BOM_R64_SE BOM_R64_SW BOM_R64_NW BOM_ROCI BOM_POCI BOM_EYE BOM_POS_METHOD BOM_PRES_METHOD NADI_LAT NADI_LON NADI_CAT NADI_WIND NADI_PRES WELLINGTON_LAT WELLINGTON_LON WELLINGTON_WIND WELLINGTON_PRES DS824_LAT DS824_LON DS824_STAGE DS824_WIND DS824_PRES TD9636_LAT TD9636_LON TD9636_STAGE TD9636_WIND TD9636_PRES TD9635_LAT TD9635_LON TD9635_WIND TD9635_PRES TD9635_ROCI NEUMANN_LAT NEUMANN_LON NEUMANN_CLASS NEUMANN_WIND NEUMANN_PRES MLC_LAT MLC_LON MLC_CLASS MLC_WIND MLC_PRES USA_GUST BOM_GUST BOM_GUST_PER REUNION_GUST REUNION_GUST_PER USA_SEAHGT USA_SEARAD_NE USA_SEARAD_SE USA_SEARAD_SW USA_SEARAD_NW STORM_SPEED STORM_DIR
1991200N05157 1991 41 WP MM CAITLIN 1991-07-18 12:00:00 NR 5.00000 157.000 main 1083 1064 O_____________ jtwc_wp WP091991 5.00000 157.000 15 -1 14 287
1991200N05157 1991 41 WP MM CAITLIN 1991-07-18 15:00:00 NR 5.20013 156.350 main 1068 1050 P_____________ WP091991 5.20013 156.350 15 -1 14 287
1991200N05157 1991 41 WP MM CAITLIN 1991-07-18 18:00:00 NR 5.40000 155.700 main 1050 1035 O_____________ jtwc_wp WP091991 5.40000 155.700 15 -1 14 287
1991200N05157 1991 41 WP MM CAITLIN 1991-07-18 21:00:00 NR 5.59993 155.050 main 1035 1027 P_____________ WP091991 5.59993 155.050 15 -1 14 287
1991200N05157 1991 41 WP MM CAITLIN 1991-07-19 00:00:00 NR 5.80000 154.400 main 1028 1019 O_____________ jtwc_wp WP091991 5.80000 154.400 15 -1 14 287
1991200N05157 1991 41 WP MM CAITLIN 1991-07-19 03:00:00 NR 5.99242 153.750 main 1023 1020 P_____________ WP091991 5.99242 153.750 15 -1 14 287
1991200N05157 1991 41 WP MM CAITLIN 1991-07-19 06:00:00 NR 6.20000 153.100 main 1026 1024 O_____________ jtwc_wp WP091991 6.20000 153.100 15 -1 14 289
1991200N05157 1991 41 WP MM CAITLIN 1991-07-19 09:00:00 NR 6.44992 152.450 main 1035 1035 P_____________ WP091991 6.44992 152.450 17 -1 14 291
1991200N05157 1991 41 WP MM CAITLIN 1991-07-19 12:00:00 NR 6.70000 151.800 main 1058 1057 O_____________ jtwc_wp WP091991 6.70000 151.800 20 -1 14 290
1991200N05157 1991 41 WP MM CAITLIN 1991-07-19 15:00:00 NR 6.90738 151.157 main 1076 1075 P_____________ WP091991 6.90738 151.157 20 -1 14 287
1991200N05157 1991 41 WP MM CAITLIN 1991-07-19 18:00:00 NR 7.10000 150.500 main 1086 1080 O_____________ jtwc_wp WP091991 7.10000 150.500 20 -1 14 286
1991200N05157 1991 41 WP MM CAITLIN 1991-07-19 21:00:00 NR 7.29243 149.807 main 1086 1081 P_____________ WP091991 7.29243 149.807 20 -1 14 286
1991200N05157 1991 41 WP MM CAITLIN 1991-07-20 00:00:00 NR 7.50000 149.100 main 1092 1090 O_____________ jtwc_wp WP091991 7.50000 149.100 20 -1 15 288
1991200N05157 1991 41 WP MM CAITLIN 1991-07-20 03:00:00 NR 7.74239 148.400 main 1103 1103 P_____________ WP091991 7.74239 148.400 20 -1 15 290
1991200N05157 1991 41 WP MM CAITLIN 1991-07-20 06:00:00 NR 8.00000 147.700 main 1132 1132 O_____________ jtwc_wp WP091991 8.00000 147.700 20 -1 15 290
1991200N05157 1991 41 WP MM CAITLIN 1991-07-20 09:00:00 NR 8.24992 146.992 main 1154 1154 P_____________ WP091991 8.24992 146.992 20 -1 15 290
1991200N05157 1991 41 WP MM CAITLIN 1991-07-20 12:00:00 NR 8.50000 146.300 main 1188 1188 O_____________ jtwc_wp WP091991 8.50000 146.300 20 -1 14 291
1991200N05157 1991 41 WP MM CAITLIN 1991-07-20 15:00:00 NR 8.74985 145.642 main 1215 1215 P_____________ WP091991 8.74985 145.642 20 -1 14 291
1991200N05157 1991 41 WP MM CAITLIN 1991-07-20 18:00:00 NR 9.00000 145.000 main 1256 1256 O_____________ jtwc_wp WP091991 9.00000 145.000 20 -1 14 291
1991200N05157 1991 41 WP MM CAITLIN 1991-07-20 21:00:00 NR 9.24992 144.342 main 1291 1291 P_____________ WP091991 9.24992 144.342 20 -1 14 291
1991200N05157 1991 41 WP MM CAITLIN 1991-07-21 00:00:00 NR 9.50000 143.700 main 1339 1339 O_____________ jtwc_wp WP091991 9.50000 143.700 20 -1 13 292
1991200N05157 1991 41 WP MM CAITLIN 1991-07-21 03:00:00 NR 9.74236 143.092 main 1377 1377 P_____________ WP091991 9.74236 143.092 20 -1 13 293
1991200N05157 1991 41 WP MM CAITLIN 1991-07-21 06:00:00 NR 10.0000 142.500 main 1384 1380 O_____________ jtwc_wp WP091991 10.0000 142.500 20 -1 13 295
1991200N05157 1991 41 WP MM CAITLIN 1991-07-21 09:00:00 NR 10.2999 141.900 main 1394 1394 P_____________ WP091991 10.2999 141.900 20 -1 12 320
1991200N05157 1991 41 WP MM CAITLIN 1991-07-21 12:00:00 TS 10.8800 141.740 main 1453 1453 O_O___________ jtwc_wp WP091991 10.6000 141.300 20 -1 12.0000 143.500 1 23 1006 11 335
1991200N05157 1991 41 WP MM CAITLIN 1991-07-21 15:00:00 TS 11.2500 141.440 main 1475 1475 P_P___________ WP091991 10.8574 140.700 20 -1 12.0352 142.920 1 23 1005 12 305
1991200N05157 1991 41 WP MM CAITLIN 1991-07-21 18:00:00 TS 11.5875 140.725 1006 tokyo main 1487 1482 OOO___________ jtwc_wp WP091991 11.1000 140.100 20 -1 12.0000 138.500 2 1006 0 0 0 12.1000 142.300 1 23 1005 14 293
1991200N05157 1991 41 WP MM CAITLIN 1991-07-21 21:00:00 TS 11.8099 140.097 main 1486 1472 PPP___________ WP091991 11.3499 139.500 20 -1 11.9351 138.252 2 1005 0 0 12.2074 141.615 1 26 1003 14 285
1991200N05157 1991 41 WP MM CAITLIN 1991-07-22 00:00:00 TS 11.9364 139.382 1004 tokyo main 1472 1413 OOO___________ jtwc_wp WP091991 11.6000 138.900 20 -1 11.9000 138.000 2 1004 0 0 0 12.3000 140.900 1 29 1002 13 279
1991200N05157 1991 41 WP MM CAITLIN 1991-07-22 03:00:00 TS 12.0282 138.738 main 1402 1351 PPP___________ WP091991 11.8575 138.285 22 -1 11.9199 137.730 2 1004 0 0 12.3073 140.200 1 29 1002 12 280
1991200N05157 1991 41 WP MM CAITLIN 1991-07-22 06:00:00 TS 12.1333 138.200 1004 tokyo main 1351 1301 OOO___________ jtwc_wp WP091991 12.1000 137.700 25 -1 12.0000 137.400 2 1004 0 0 0 12.3000 139.500 1 29 1002 11 282
1991200N05157 1991 41 WP MM CAITLIN 1991-07-22 09:00:00 TS 12.2541 137.645 main 1293 1241 PPP___________ WP091991 12.3073 137.192 25 -1 12.1276 136.943 2 1004 0 0 12.3273 138.800 1 29 1002 11 284
1991200N05157 1991 41 WP MM CAITLIN 1991-07-22 12:00:00 TS 12.4000 137.100 1004 tokyo main 1241 1189 OOO___________ jtwc_wp WP091991 12.5000 136.700 25 -1 12.3000 136.500 2 1004 0 0 0 12.4000 138.100 1 29 1002 11 287
1991200N05157 1991 41 WP MM CAITLIN 1991-07-22 15:00:00 TS 12.5783 136.583 main 1189 1137 PPP___________ WP091991 12.7000 136.142 25 -1 12.4999 136.220 2 1004 0 0 12.5349 137.385 1 29 1002 11 290
1991200N05157 1991 41 WP MM CAITLIN 1991-07-22 18:00:00 TS 12.7692 136.054 1004 tokyo main 1139 1087 OOOO__________ jtwc_wp WP091991 12.9000 135.600 25 -1 12.7000 136.000 2 1004 0 0 0 12.7000 136.700 1 29 1002 12.8000 135.500 TD 25 995 10 290
1991200N05157 1991 41 WP MM CAITLIN 1991-07-22 21:00:00 TS 12.9378 135.582 main 1087 1049 PPPP__________ WP091991 13.0999 135.127 25 -1 12.8574 135.772 2 1003 0 0 12.8499 136.055 1 29 1002 12.9500 135.163 TD 25 995 9 291
1991200N05157 1991 41 WP MM CAITLIN 1991-07-23 00:00:00 TS 13.1000 135.147 1002 tokyo main 1038 1009 OOOO__________ jtwc_wp WP091991 13.3000 134.700 25 -1 13.0000 135.500 2 1002 0 0 0 13.0000 135.500 1 29 1002 13.1000 134.800 TD 25 995 9 291
1991200N05157 1991 41 WP MM CAITLIN 1991-07-23 03:00:00 TS 13.2643 134.731 main 1001 962 PPPP__________ WP091991 13.5073 134.307 25 -1 13.1500 135.137 2 1002 0 0 13.1497 135.077 1 29 1002 13.2500 134.400 TD 25 995 9 292
1991200N05157 1991 41 WP MM CAITLIN 1991-07-23 06:00:00 TS 13.4250 134.325 1002 tokyo main 962 924 OOOO__________ jtwc_wp WP091991 13.7000 133.900 25 -1 13.3000 134.700 2 1002 0 0 0 13.3000 134.700 1 29 1002 13.4000 134.000 TD 25 995 9 291
1991200N05157 1991 41 WP MM CAITLIN 1991-07-23 09:00:00 TS 13.5825 133.879 main 924 872 PPPP__________ WP091991 13.8650 133.415 27 -1 13.4576 134.200 2 1002 0 0 13.4575 134.250 1 29 1002 13.5499 133.650 TD 27 992 9 289
1991200N05157 1991 41 WP MM CAITLIN 1991-07-23 12:00:00 TS 13.7250 133.425 1002 tokyo main 872 832 OOOO__________ jtwc_wp WP091991 14.0000 132.900 30 -1 13.6000 133.700 2 1002 0 0 0 13.6000 133.800 1 29 1002 13.7000 133.300 TD 30 990 9 286
1991200N05157 1991 41 WP MM CAITLIN 1991-07-23 15:00:00 TS 13.8280 132.996 main 832 792 PPPP__________ WP091991 14.1074 132.392 32 -1 13.6848 133.292 2 1001 0 0 13.6773 133.407 1 29 1001 13.8425 132.892 TD 32 987 9 285
1991200N05157 1991 41 WP MM CAITLIN 1991-07-23 18:00:00 TS 13.9500 132.575 1000 tokyo main 795 756 OOOO__________ jtwc_wp WP091991 14.2000 131.900 35 0 13.8000 132.900 2 1000 0 0 0 13.8000 133.000 1 29 1000 14.0000 132.500 TS 35 985 9 290
1991200N05157 1991 41 WP MM CAITLIN 1991-07-23 21:00:00 TS 14.1287 132.139 main 745 715 PPPP__________ WP091991 14.2849 131.427 37 0 14.0051 132.435 2 998 0 0 14.0551 132.500 1 33 999 14.1699 132.192 TS 37 982 9 297
1991200N05157 1991 41 WP MM CAITLIN 1991-07-24 00:00:00 TS 14.3750 131.725 45 996 tokyo main 715 692 OOOO__________ jtwc_wp WP091991 14.4000 131.000 40 0 14.3000 132.000 3 45 996 0 9 150 150 0 14.4000 132.000 2 38 998 14.4000 131.900 TS 40 980 10 306
1991200N05157 1991 41 WP MM CAITLIN 1991-07-24 03:00:00 TS 14.6919 131.334 main 687 672 PPPP__________ WP091991 14.5625 130.590 42 0 14.6699 131.662 3 45 995 0 9 150 150 14.8225 131.540 2 38 994 14.7125 131.543 TS 42 977 10 315
1991200N05157 1991 41 WP MM CAITLIN 1991-07-24 06:00:00 TS 15.0500 131.025 45 994 tokyo main 677 673 OOOO__________ jtwc_wp WP091991 14.8000 130.300 45 0 15.1000 131.400 3 45 994 0 9 150 150 0 15.2000 131.200 2 38 990 15.1000 131.200 TS 45 975 9 326
1991200N05157 1991 41 WP MM CAITLIN 1991-07-24 09:00:00 TS 15.3943 130.843 main 675 675 PPPP__________ WP091991 15.1124 130.197 45 0 15.5424 131.192 3 45 992 0 9 155 155 15.3799 131.062 2 38 990 15.5425 130.920 TS 47 972 8 338
1991200N05157 1991 41 WP MM CAITLIN 1991-07-24 12:00:00 TS 15.7500 130.725 45 990 tokyo main 690 688 OOOO__________ jtwc_wp WP091991 15.5000 130.200 45 0 16.0000 131.000 3 45 990 0 9 160 160 0 15.5000 131.000 2 38 990 16.0000 130.700 STS 50 970 8 341
1991200N05157 1991 41 WP MM CAITLIN 1991-07-24 15:00:00 TS 16.1062 130.587 main 702 700 PPPP__________ WP091991 15.9200 130.192 45 0 16.4500 130.750 3 47 987 0 9 160 160 15.6400 130.872 2 43 987 16.4149 130.535 STS 52 967 8 341
1991200N05157 1991 41 WP MM CAITLIN 1991-07-24 18:00:00 TS 16.5000 130.450 50 985 tokyo main 716 706 OOOO__________ jtwc_wp WP091991 16.4000 130.200 45 0 16.9000 130.500 4 50 985 0 9 160 160 0 15.9000 130.700 3 48 985 16.8000 130.400 STS 55 965 9 343
1991200N05157 1991 41 WP MM CAITLIN 1991-07-24 21:00:00 TS 16.9506 130.311 main 721 721 PPPP__________ WP091991 16.9425 130.230 50 0 17.3575 130.292 4 52 982 0 9 185 185 16.3600 130.465 3 48 985 17.1425 130.257 STS 55 965 10 343
1991200N05157 1991 41 WP MM CAITLIN 1991-07-25 00:00:00 TS 17.4500 130.150 55 980 tokyo main 740 731 OOOO__________ jtwc_wp WP091991 17.5000 130.200 55 0 17.8000 130.100 4 55 980 9 40 40 9 210 210 0 17.0000 130.200 3 48 985 17.5000 130.100 STS 55 965 11 342
1991200N05157 1991 41 WP MM CAITLIN 1991-07-25 03:00:00 TS 17.9893 129.967 main 754 745 PPPP__________ WP091991 18.0149 130.052 57 0 18.1999 129.922 4 55 980 9 45 45 9 220 220 17.8149 129.965 3 53 982 17.9274 129.930 STS 55 965 12 339
1991200N05157 1991 41 WP MM CAITLIN 1991-07-25 06:00:00 TS 18.5250 129.725 55 980 tokyo main 765 750 OOOO__________ jtwc_wp WP091991 18.5000 129.800 60 0 18.6000 129.700 4 55 980 9 50 50 9 230 230 0 18.6000 129.700 3 58 980 18.4000 129.700 STS 55 965 12 332
1991200N05157 1991 41 WP MM CAITLIN 1991-07-25 09:00:00 TS 19.0044 129.386 main 750 713 PPPP__________ WP091991 18.9575 129.472 62 0 19.0501 129.358 4 57 977 9 55 55 9 240 240 19.1101 129.350 3 58 977 18.9001 129.365 STS 57 962 11 324
1991200N05157 1991 41 WP MM CAITLIN 1991-07-25 12:00:00 TS 19.4500 129.025 60 975 tokyo main 715 690 OOOO__________ jtwc_wp WP091991 19.4000 129.100 65 1 19.5000 129.000 4 60 975 9 60 60 9 250 250 0 19.5000 129.000 3 58 975 19.4000 129.000 STS 60 960 11 324
1991200N05157 1991 41 WP MM CAITLIN 1991-07-25 15:00:00 TS 19.8712 128.726 main 692 681 PPPP__________ WP091991 19.8425 128.742 65 1 19.8999 128.742 4 62 972 9 65 65 9 250 250 19.8924 128.735 3 63 972 19.8499 128.685 STS 60 960 10 327
1991200N05157 1991 41 WP MM CAITLIN 1991-07-25 18:00:00 TS 20.3000 128.450 65 970 tokyo main 684 665 OOOO__________ jtwc_wp WP091991 20.3000 128.400 65 1 20.3000 128.500 5 65 970 9 70 70 9 250 250 0 20.3000 128.500 4 68 970 20.3000 128.400 STS 60 960 11 330
1991200N05157 1991 41 WP MM CAITLIN 1991-07-25 21:00:00 TS 20.7776 128.162 main 673 663 PPPP__________ WP091991 20.8000 128.077 67 1 20.7330 128.186 5 67 967 9 75 75 9 300 200 20.7850 128.250 4 68 970 20.7925 128.135 STS 60 960 11 332
1991200N05157 1991 41 WP MM CAITLIN 1991-07-26 00:00:00 TS 21.2750 127.900 70 965 tokyo main 669 665 OOOO__________ jtwc_wp WP091991 21.3000 127.800 70 1 21.2000 127.900 5 70 965 9 80 80 2 350 150 0 21.3000 128.000 4 68 970 21.3000 127.900 STS 60 960 11 336
1991200N05157 1991 41 WP MM CAITLIN 1991-07-26 03:00:00 TS 21.7718 127.682 70 965 tokyo main 663 626 POPP__________ WP091991 21.7574 127.585 72 1 21.7000 127.700 5 70 965 9 80 80 2 300 200 0 21.8075 127.750 4 68 970 21.8224 127.692 STS 62 957 11 337
1991200N05157 1991 41 WP MM CAITLIN 1991-07-26 06:00:00 TS 22.2750 127.450 70 965 tokyo main 621 575 OOOO__________ jtwc_wp WP091991 22.2000 127.400 75 1 22.3000 127.400 5 70 965 9 80 80 2 300 200 0 22.3000 127.500 4 68 970 22.3000 127.500 T 65 955 11 337
1991200N05157 1991 41 WP MM CAITLIN 1991-07-26 09:00:00 TS 22.7312 127.232 70 965 tokyo main 575 541 POPP__________ WP091991 22.6650 127.193 77 1 22.8000 127.200 5 70 965 9 80 80 2 300 200 0 22.7875 127.235 4 68 970 22.6725 127.300 T 65 955 9 335
1991200N05157 1991 41 WP MM CAITLIN 1991-07-26 12:00:00 TS 23.1250 127.025 75 965 tokyo main 541 522 OOOO__________ jtwc_wp WP091991 23.1000 127.000 80 1 23.2000 127.000 5 75 965 9 80 80 2 300 200 0 23.2000 127.000 4 68 970 23.0000 127.100 T 65 955 8 333
1991200N05157 1991 41 WP MM CAITLIN 1991-07-26 15:00:00 TS 23.4237 126.842 75 960 tokyo main 512 495 POPP__________ WP091991 23.4725 126.827 82 1 23.4000 126.800 5 75 960 9 90 90 2 300 200 0 23.4649 126.842 4 72 965 23.3575 126.900 T 65 955 7 334
1991200N05157 1991 41 WP MM CAITLIN 1991-07-26 18:00:00 TS 23.7250 126.700 75 960 tokyo main 495 468 OOOO__________ jtwc_wp WP091991 23.8000 126.700 85 2 23.7000 126.700 5 75 960 9 90 90 2 300 200 0 23.7000 126.700 4 77 960 23.7000 126.700 T 65 955 7 335
1991200N05157 1991 41 WP MM CAITLIN 1991-07-26 21:00:00 TS 24.0550 126.517 75 955 tokyo main 465 449 POPP__________ WP091991 24.0925 126.635 87 2 24.1000 126.500 5 75 955 9 90 90 2 300 200 0 24.0351 126.470 4 77 960 23.9926 126.463 T 67 952 7 335
1991200N05157 1991 41 WP MM CAITLIN 1991-07-27 00:00:00 TS 24.3750 126.375 75 955 tokyo main 449 444 OOOO__________ jtwc_wp WP091991 24.4000 126.600 90 2 24.4000 126.300 5 75 955 9 90 90 2 300 200 0 24.4000 126.300 4 77 960 24.3000 126.300 T 70 950 7 348
1991200N05157 1991 41 WP MM CAITLIN 1991-07-27 03:00:00 TS 24.7169 126.361 75 950 tokyo main 444 443 POPP__________ WP091991 24.7775 126.535 90 2 24.7000 126.300 5 75 950 9 90 90 2 300 200 0 24.7275 126.305 4 77 960 24.6625 126.305 T 70 950 8 2
1991200N05157 1991 41 WP MM CAITLIN 1991-07-27 06:00:00 TS 25.1250 126.425 75 950 tokyo main 443 443 OOOO__________ jtwc_wp WP091991 25.2000 126.500 90 2 25.1000 126.400 5 75 950 9 90 90 2 300 200 0 25.1000 126.400 4 77 960 25.1000 126.400 T 70 950 9 9
1991200N05157 1991 41 WP MM CAITLIN 1991-07-27 09:00:00 TS 25.6100 126.505 75 945 tokyo main 456 456 POPP__________ WP091991 25.6350 126.535 90 2 25.6000 126.500 5 75 945 9 90 90 2 300 200 0 25.5775 126.492 4 77 957 25.6275 126.492 T 70 950 10 9
1991200N05157 1991 41 WP MM CAITLIN 1991-07-27 12:00:00 TS 26.1250 126.600 80 940 tokyo main 477 477 OOOO__________ jtwc_wp WP091991 26.1000 126.600 90 2 26.1000 126.600 5 80 940 9 90 90 2 300 200 0 26.1000 126.600 4 77 955 26.2000 126.600 T 70 950 10 9
1991200N05157 1991 41 WP MM CAITLIN 1991-07-27 15:00:00 TS 26.6281 126.689 80 940 tokyo main 502 502 POPP__________ WP091991 26.5850 126.643 92 2 26.6000 126.700 5 80 940 2 100 80 2 300 200 0 26.5775 126.708 4 77 955 26.7500 126.707 T 70 950 11 8
1991200N05157 1991 41 WP MM CAITLIN 1991-07-27 18:00:00 TS 27.1750 126.775 80 940 tokyo main 520 497 OOOO__________ jtwc_wp WP091991 27.1000 126.700 95 2 27.2000 126.800 5 80 940 2 120 70 2 300 200 0 27.1000 126.800 4 77 955 27.3000 126.800 T 70 950 11 7
1991200N05157 1991 41 WP MM CAITLIN 1991-07-27 21:00:00 TS 27.7606 126.850 80 940 tokyo main 495 453 POPP__________ WP091991 27.6350 126.793 95 2 27.8000 126.900 5 80 940 2 120 70 2 300 200 0 27.7500 126.858 4 77 955 27.8575 126.850 T 75 945 12 5
1991200N05157 1991 41 WP MM CAITLIN 1991-07-28 00:00:00 TS 28.3500 126.900 80 940 tokyo main 445 407 OOOO__________ jtwc_wp WP091991 28.2000 126.900 95 2 28.4000 126.900 5 80 940 2 120 70 2 325 200 0 28.4000 126.900 4 77 955 28.4000 126.900 T 80 940 11 5
1991200N05157 1991 41 WP MM CAITLIN 1991-07-28 03:00:00 TS 28.8500 126.959 80 940 tokyo main 407 373 POPP__________ WP091991 28.8000 127.007 95 2 28.8000 126.900 5 80 940 2 130 70 2 325 200 0 28.9075 126.935 4 77 952 28.8925 126.993 T 80 940 10 7
1991200N05157 1991 41 WP MM CAITLIN 1991-07-28 06:00:00 TS 29.3750 127.050 80 940 tokyo main 358 321 OOOO__________ jtwc_wp WP091991 29.4000 127.100 95 2 29.3000 127.000 5 80 940 2 130 70 2 325 200 0 29.4000 127.000 4 77 950 29.4000 127.100 T 80 940 11 10
1991200N05157 1991 41 WP MM CAITLIN 1991-07-28 09:00:00 TS 29.9550 127.177 80 940 tokyo main 316 287 POPP__________ WP091991 29.9500 127.143 92 2 29.9000 127.200 5 80 940 2 140 70 2 325 200 0 29.9851 127.157 4 77 950 29.9850 127.207 T 77 942 12 9
1991200N05157 1991 41 WP MM CAITLIN 1991-07-28 12:00:00 TS 30.5500 127.275 80 940 tokyo main 284 243 OOOO__________ jtwc_wp WP091991 30.5000 127.200 90 2 30.5000 127.300 5 80 940 2 140 70 2 325 200 0 30.6000 127.300 4 77 950 30.6000 127.300 T 75 945 12 5
1991200N05157 1991 41 WP MM CAITLIN 1991-07-28 15:00:00 TS 31.1480 127.301 80 940 tokyo main 243 183 POPP__________ WP091991 31.0849 127.313 90 2 31.1000 127.300 5 80 940 2 140 70 2 325 200 0 31.2073 127.271 4 77 950 31.1999 127.321 T 72 945 12 4
1991200N05157 1991 41 WP MM CAITLIN 1991-07-28 18:00:00 TS 31.7750 127.375 80 940 tokyo main 173 134 OOOO__________ jtwc_wp WP091991 31.7000 127.500 90 2 31.8000 127.300 5 80 940 2 140 70 2 325 200 0 31.8000 127.300 4 77 950 31.8000 127.400 T 70 945 13 12
1991200N05157 1991 41 WP MM CAITLIN 1991-07-28 21:00:00 TS 32.3674 127.612 80 945 tokyo main 125 111 POPP__________ WP091991 32.3423 127.748 87 2 32.4000 127.500 5 80 945 2 120 60 2 300 180 0 32.3350 127.575 4 77 950 32.3923 127.626 T 65 947 13 25
1991200N05157 1991 41 WP MM CAITLIN 1991-07-29 00:00:00 TS 32.9750 128.025 75 950 tokyo main 116 107 OOOO__________ jtwc_wp WP091991 33.0000 128.100 85 2 33.0000 128.000 5 75 950 3 100 60 3 300 180 0 32.9000 128.000 4 77 950 33.0000 128.000 STS 60 950 14 31
1991200N05157 1991 41 WP MM CAITLIN 1991-07-29 03:00:00 TS 33.6041 128.492 75 950 tokyo main 107 78 POPP__________ WP091991 33.6347 128.541 80 1 33.6000 128.500 5 75 950 3 100 60 3 300 180 0 33.5544 128.434 4 72 955 33.6274 128.491 STS 57 952 16 33
1991200N05157 1991 41 WP MM CAITLIN 1991-07-29 06:00:00 TS 34.3000 129.075 70 955 tokyo main 78 49 OOOO__________ jtwc_wp WP091991 34.3000 129.100 75 1 34.3000 129.100 5 70 955 3 90 60 3 300 150 0 34.3000 129.000 4 68 960 34.3000 129.100 STS 55 955 18 37
1991200N05157 1991 41 WP MM CAITLIN 1991-07-29 09:00:00 TS 35.0727 129.808 65 960 tokyo main 49 49 POPP__________ WP091991 35.0275 129.763 70 1 35.1000 129.900 5 65 960 3 80 50 3 280 140 0 35.1284 129.791 4 63 965 35.0350 129.778 STS 55 957 20 37
1991200N05157 1991 41 WP MM CAITLIN 1991-07-29 12:00:00 TS 35.8750 130.550 65 965 tokyo main 90 89 OOOO__________ jtwc_wp WP091991 35.8000 130.500 65 1 35.9000 130.600 5 65 965 3 70 40 3 280 140 0 36.0000 130.600 3 58 970 35.8000 130.500 STS 55 960 20 35
1991200N05157 1991 41 WP MM CAITLIN 1991-07-29 15:00:00 TS 36.6825 131.193 65 965 tokyo main 151 151 POPP__________ WP091991 36.5848 131.251 65 1 36.8000 131.200 5 65 965 3 70 40 3 280 140 0 36.8333 131.140 3 58 970 36.5117 131.181 STS 50 965 19 32
1991200N05157 1991 41 WP MM CAITLIN 1991-07-29 18:00:00 TS 37.5067 131.813 60 970 tokyo main 216 216 OOOO__________ jtwc_wp WP091991 37.4000 132.000 65 1 37.6000 131.700 4 60 970 3 60 30 3 280 140 0 37.7000 131.700 3 58 970 37.3000 131.900 TS 45 970 20 33
1991200N05157 1991 41 WP MM CAITLIN 1991-07-29 21:00:00 TS 38.4013 132.580 60 975 tokyo main 313 313 POPP__________ WP091991 38.2431 132.709 65 1 38.4000 132.400 4 60 975 3 60 30 3 240 120 0 38.6357 132.562 3 53 975 38.2471 132.714 TS 42 975 24 34
1991200N05157 1991 41 WP MM CAITLIN 1991-07-30 00:00:00 TS 39.4500 133.517 55 980 tokyo main 352 271 OOOO__________ jtwc_wp WP091991 39.1000 133.400 65 1 39.5000 133.500 4 55 980 3 50 30 3 190 150 0 39.6000 133.500 3 48 980 39.3000 133.600 TS 40 980 25 34
1991200N05157 1991 41 WP MM CAITLIN 1991-07-30 03:00:00 TS 40.4701 134.379 55 980 tokyo main 262 198 _OPP__________ WP091991 -1 40.4000 134.400 4 55 980 3 50 30 3 190 150 0 40.5782 134.281 3 43 982 40.3940 134.531 TS 37 982 23 33
1991200N05157 1991 41 WP MM CAITLIN 1991-07-30 06:00:00 TS 41.4143 135.200 50 985 tokyo main 198 161 _OOO__________ -1 41.3000 135.200 4 50 985 0 3 190 120 0 41.5000 135.100 2 38 985 41.5000 135.500 TS 35 985 22 37
1991200N05157 1991 41 WP MM CAITLIN 1991-07-30 09:00:00 TS 42.1965 136.095 50 985 tokyo main 165 153 _OP___________ -1 42.1000 136.100 4 50 985 0 3 190 120 0 42.2929 136.090 2 33 990 TS 21 42
1991200N05157 1991 41 WP MM CAITLIN 1991-07-30 12:00:00 MX 43.0000 137.100 992 tokyo main 163 _OO___________ -1 43.0000 137.000 6 992 0 0 0 43.0000 137.200 1 29 995 22 42

Digital Typhoon Data and Search

About IBTrACS Database

This database is a web-friendly format of International Best Track Archive for Climate Stewardship (IBTrACS), a global best track data archive curated by NOAA dating back to 1842.

Updated: 2021-12-03